createdAt,value
2018-09-27T07:34:36.500Z,21.60
2018-09-27T07:35:36.420Z,21.61
2018-09-27T07:36:19.211Z,21.70
2018-09-27T07:37:19.129Z,21.70
2018-09-27T07:38:19.081Z,21.75
2018-09-27T07:39:19.026Z,21.80
2018-09-27T07:41:52.223Z,21.61
2018-09-27T07:42:52.363Z,21.48
2018-09-27T07:43:52.223Z,21.66
2018-09-27T07:44:51.604Z,21.64
2018-09-27T07:45:51.569Z,21.58
2018-09-27T07:46:51.573Z,21.48
2018-09-27T07:51:36.604Z,21.58
2018-09-27T07:52:30.161Z,21.62
2018-09-27T07:53:30.105Z,21.66
2018-09-27T07:54:30.254Z,21.57
2018-09-27T07:55:30.039Z,21.60
2018-09-27T07:56:30.185Z,21.54
2018-09-27T07:57:30.043Z,21.64
2018-09-27T07:58:30.021Z,21.58
2018-09-27T07:59:53.445Z,21.62
2018-09-27T08:00:53.418Z,21.62
2018-09-27T08:01:53.515Z,21.67
2018-09-27T08:02:53.625Z,21.60
2018-09-27T08:03:53.432Z,21.73
2018-09-27T08:04:53.420Z,21.82
2018-09-27T08:05:53.398Z,21.85
2018-09-27T08:06:53.414Z,21.83
2018-09-27T08:07:34.194Z,21.80
2018-09-27T08:08:50.916Z,21.79
2018-09-27T08:09:50.937Z,21.70
2018-09-27T08:10:50.812Z,21.73
2018-09-27T08:11:50.782Z,21.88
2018-09-27T08:12:50.723Z,21.88
2018-09-27T08:13:50.659Z,21.96
2018-09-27T08:14:50.641Z,21.83
2018-09-27T08:15:50.621Z,21.83
2018-09-27T08:16:50.763Z,21.83
2018-09-27T08:17:50.657Z,21.73
2018-09-27T08:18:41.026Z,21.73
2018-09-27T08:19:40.923Z,21.82
2018-09-27T08:20:41.099Z,21.72
2018-09-27T08:21:40.885Z,21.88
2018-09-27T08:22:40.824Z,22.02
2018-09-27T08:23:40.835Z,21.93
2018-09-27T08:24:40.784Z,22.00
2018-09-27T08:25:40.760Z,22.10
2018-09-27T08:26:40.778Z,22.07
2018-09-27T08:27:40.712Z,22.06
2018-09-27T08:28:40.698Z,21.99
2018-09-27T08:29:40.792Z,22.07
2018-09-27T08:30:40.799Z,22.04
2018-09-27T08:31:40.707Z,22.02
2018-09-27T08:32:40.742Z,22.06
2018-09-27T08:34:01.836Z,22.10
2018-09-27T08:34:30.130Z,22.14
2018-09-27T08:35:30.080Z,22.15
2018-09-27T08:36:30.045Z,22.13
2018-09-27T08:37:30.021Z,22.06
2018-09-27T08:49:54.027Z,22.22
2018-09-27T08:50:53.981Z,22.17
2018-09-27T08:51:53.983Z,22.23
2018-09-27T08:52:53.925Z,22.20
2018-09-27T08:54:07.407Z,22.22
2018-09-27T08:55:07.353Z,22.23
2018-09-27T08:56:07.440Z,22.17
2018-09-27T08:57:07.340Z,22.14
2018-09-27T08:58:07.214Z,22.23
2018-09-27T08:59:07.177Z,22.18
2018-09-27T09:00:07.121Z,22.18
2018-09-27T09:01:07.071Z,22.26
2018-09-27T09:02:07.027Z,22.33
2018-09-27T09:03:07.009Z,22.29
2018-09-27T09:04:06.910Z,22.35
2018-09-27T09:05:06.853Z,22.35
2018-09-27T09:06:07.578Z,22.33
2018-09-27T09:07:06.759Z,22.28
2018-09-27T09:08:06.735Z,22.45
2018-09-27T09:09:06.681Z,22.55
2018-09-27T09:10:06.591Z,22.59
2018-09-27T09:11:06.545Z,22.60
2018-09-27T09:12:06.513Z,22.60
2018-09-27T09:13:06.413Z,22.62
2018-09-27T09:14:06.408Z,22.62
2018-09-27T09:15:06.318Z,22.60
2018-09-27T09:50:05.578Z,25.03
2018-09-27T09:51:05.402Z,25.03
2018-09-27T09:52:05.345Z,24.85
2018-09-27T09:53:05.276Z,25.03
2018-09-27T09:54:05.203Z,25.18
2018-09-27T09:55:05.113Z,25.80
2018-09-27T09:56:29.186Z,27.07
2018-09-27T09:57:29.145Z,28.19
2018-09-27T09:58:29.135Z,28.59
2018-09-27T09:59:29.121Z,28.05
2018-09-27T10:00:29.159Z,27.59
2018-09-27T10:01:29.097Z,27.89
2018-09-27T10:02:29.148Z,27.96
2018-09-27T10:03:29.079Z,27.27
2018-09-27T10:04:29.067Z,27.10
2018-09-27T10:05:29.069Z,26.90
2018-09-27T10:06:29.079Z,26.80
2018-09-27T10:07:29.037Z,26.68
2018-09-27T10:08:29.038Z,26.89
2018-09-27T10:09:29.018Z,26.85
2018-09-27T10:10:29.007Z,26.60
2018-09-27T10:11:29.024Z,26.44
2018-09-27T10:12:29.025Z,25.98
2018-09-27T10:13:28.973Z,26.02
2018-09-27T10:14:28.963Z,26.16
2018-09-27T10:15:28.962Z,26.45
2018-09-27T10:16:28.940Z,26.97
2018-09-27T10:17:28.943Z,27.47
2018-09-27T10:18:28.949Z,27.77
2018-09-27T10:19:28.913Z,27.90
2018-09-27T10:20:28.914Z,28.17
2018-09-27T10:21:28.918Z,27.60
2018-09-27T10:22:28.879Z,27.33
2018-09-27T10:23:28.900Z,27.59
2018-09-27T10:24:28.865Z,27.60
2018-09-27T10:25:28.848Z,27.17
2018-09-27T10:26:28.835Z,26.84
2018-09-27T10:27:28.842Z,26.95
2018-09-27T10:28:28.836Z,27.29
2018-09-27T10:29:28.806Z,27.32
2018-09-27T10:30:28.795Z,27.54
2018-09-27T10:31:28.785Z,28.14
2018-09-27T10:32:28.781Z,28.32
2018-09-27T10:33:28.797Z,28.27
2018-09-27T10:34:28.804Z,28.54
2018-09-27T10:35:28.755Z,28.19
2018-09-27T10:36:28.738Z,27.92
2018-09-27T10:37:28.730Z,28.01
2018-09-27T10:38:28.749Z,28.17
2018-09-27T10:39:28.727Z,27.95
2018-09-27T10:40:28.703Z,28.08
2018-09-27T10:41:28.684Z,28.07
2018-09-27T10:42:28.674Z,27.49
2018-09-27T10:43:28.703Z,27.75
2018-09-27T10:44:28.658Z,27.98
2018-09-27T10:45:28.650Z,28.10
2018-09-27T10:46:28.637Z,28.19
2018-09-27T10:47:28.647Z,28.29
2018-09-27T10:48:28.657Z,28.44
2018-09-27T10:49:28.618Z,28.29
2018-09-27T10:50:28.593Z,28.33
2018-09-27T10:51:28.742Z,28.33
2018-09-27T10:52:28.579Z,28.14
2018-09-27T10:53:28.630Z,28.11
2018-09-27T10:54:28.580Z,28.30
2018-09-27T10:55:28.544Z,28.23
2018-09-27T10:56:28.533Z,28.08
2018-09-27T10:57:28.525Z,27.70
2018-09-27T10:58:28.518Z,27.22
2018-09-27T10:59:28.558Z,26.62
2018-09-27T11:00:28.496Z,26.44
2018-09-27T11:01:28.484Z,26.44
2018-09-27T11:02:28.473Z,26.66
2018-09-27T11:03:28.463Z,26.88
2018-09-27T11:04:28.480Z,26.95
2018-09-27T11:05:28.489Z,26.41
2018-09-27T11:06:28.430Z,26.38
2018-09-27T11:07:28.424Z,26.33
2018-09-27T11:08:28.413Z,26.51
2018-09-27T11:09:28.455Z,26.71
2018-09-27T11:10:28.397Z,27.25
2018-09-27T11:11:28.417Z,27.20
2018-09-27T11:12:28.370Z,27.33
2018-09-27T11:13:28.372Z,27.75
2018-09-27T11:14:28.350Z,27.73
2018-09-27T11:15:28.365Z,27.58
2018-09-27T11:16:28.370Z,27.63
2018-09-27T11:17:28.339Z,27.67
2018-09-27T11:18:28.324Z,27.58
2018-09-27T11:19:28.324Z,27.20
2018-09-27T11:20:28.315Z,26.78
2018-09-27T11:21:28.282Z,26.10
2018-09-27T11:22:28.278Z,26.02
2018-09-27T11:23:28.268Z,25.68
2018-09-27T11:24:28.249Z,25.59
2018-09-27T11:25:28.269Z,25.68
2018-09-27T11:26:28.236Z,26.10
2018-09-27T11:27:28.275Z,26.56
2018-09-27T11:28:28.210Z,27.02
2018-09-27T11:29:28.227Z,27.30
2018-09-27T11:30:28.194Z,27.36
2018-09-27T11:31:28.191Z,27.47
2018-09-27T11:32:28.170Z,27.68
2018-09-27T11:33:28.171Z,27.71
2018-09-27T11:34:28.184Z,27.89
2018-09-27T11:35:28.143Z,27.93
2018-09-27T11:36:28.161Z,28.04
2018-09-27T11:37:28.126Z,28.07
2018-09-27T11:38:28.168Z,28.08
2018-09-27T11:39:28.138Z,28.01
2018-09-27T11:40:28.099Z,27.40
2018-09-27T11:41:28.083Z,26.70
2018-09-27T11:42:28.131Z,26.00
2018-09-27T11:43:28.062Z,25.73
2018-09-27T11:44:28.056Z,25.58
2018-09-27T11:45:28.066Z,25.72
2018-09-27T11:46:28.027Z,26.03
2018-09-27T11:47:28.017Z,26.00
2018-09-27T11:48:28.007Z,26.22
2018-09-27T11:49:28.113Z,26.53
2018-09-27T11:50:28.026Z,26.53
2018-09-27T11:51:27.985Z,26.56
2018-09-27T11:52:27.976Z,26.62
2018-09-27T11:53:27.954Z,26.74
2018-09-27T11:54:27.949Z,27.02
2018-09-27T11:55:29.174Z,27.22
2018-09-27T11:56:27.923Z,27.54
2018-09-27T11:57:27.920Z,27.58
2018-09-27T11:58:27.905Z,27.78
2018-09-27T11:59:28.869Z,27.80
2018-09-27T12:00:27.974Z,28.14
2018-09-27T12:01:27.895Z,28.94
2018-09-27T12:02:27.869Z,29.63
2018-09-27T12:03:27.854Z,29.61
2018-09-27T12:04:27.839Z,29.65
2018-09-27T12:05:27.833Z,30.18
2018-09-27T12:06:27.884Z,30.24
2018-09-27T12:07:27.836Z,30.78
2018-09-27T12:08:27.828Z,30.80
2018-09-27T12:09:27.787Z,30.73
2018-09-27T12:10:27.779Z,30.92
2018-09-27T12:11:27.799Z,31.27
2018-09-27T12:12:27.787Z,31.00
2018-09-27T12:13:27.878Z,31.07
2018-09-27T12:14:27.848Z,31.09
2018-09-27T12:15:27.761Z,31.42
2018-09-27T12:16:27.724Z,31.46
2018-09-27T12:17:27.772Z,31.55
2018-09-27T12:18:27.708Z,31.64
2018-09-27T12:19:27.783Z,31.29
2018-09-27T12:20:27.678Z,31.07
2018-09-27T12:21:27.670Z,31.06
2018-09-27T12:22:27.665Z,31.22
2018-09-27T12:23:27.686Z,31.39
2018-09-27T12:24:27.658Z,31.49
2018-09-27T12:25:27.687Z,31.42
2018-09-27T12:26:27.621Z,31.69
2018-09-27T12:27:27.610Z,31.18
2018-09-27T12:28:27.620Z,30.61
2018-09-27T12:29:27.599Z,30.35
2018-09-27T12:30:27.912Z,30.32
2018-09-27T12:31:27.600Z,30.51
2018-09-27T12:32:27.581Z,30.77
2018-09-27T12:33:28.380Z,31.00
2018-09-27T12:34:27.626Z,31.10
2018-09-27T12:35:27.566Z,31.58
2018-09-27T12:36:27.543Z,31.94
2018-09-27T12:37:27.505Z,32.36
2018-09-27T12:38:27.555Z,32.53
2018-09-27T12:39:27.532Z,32.64
2018-09-27T12:40:27.511Z,32.77
2018-09-27T12:41:27.507Z,32.82
2018-09-27T12:42:27.512Z,33.12
2018-09-27T12:43:27.443Z,33.17
2018-09-27T12:44:27.440Z,33.20
2018-09-27T12:45:27.469Z,32.45
2018-09-27T12:46:27.511Z,32.03
2018-09-27T12:47:27.419Z,31.90
2018-09-27T12:48:27.451Z,31.77
2018-09-27T12:49:27.388Z,31.87
2018-09-27T12:50:27.453Z,31.66
2018-09-27T12:51:27.382Z,30.66
2018-09-27T12:52:27.567Z,30.06
2018-09-27T12:53:27.344Z,31.97
2018-09-27T12:54:27.340Z,34.05
2018-09-27T12:55:27.360Z,35.48
2018-09-27T12:56:27.317Z,36.40
2018-09-27T12:57:27.309Z,37.08
2018-09-27T12:58:27.309Z,37.55
2018-09-27T12:59:27.284Z,37.96
2018-09-27T13:00:27.297Z,37.99
2018-09-27T13:01:27.280Z,37.51
2018-09-27T13:02:27.343Z,37.13
2018-09-27T13:03:27.253Z,36.42
2018-09-27T13:04:27.250Z,36.24
2018-09-27T13:05:27.330Z,35.80
2018-09-27T13:06:27.226Z,35.27
2018-09-27T13:07:27.230Z,34.88
2018-09-27T13:08:27.246Z,35.00
2018-09-27T13:09:27.328Z,35.23
2018-09-27T13:10:27.182Z,35.68
2018-09-27T13:11:27.196Z,36.20
2018-09-27T13:12:27.296Z,36.52
2018-09-27T13:13:27.287Z,36.88
2018-09-27T13:14:27.160Z,37.08
2018-09-27T13:15:27.130Z,37.32
2018-09-27T13:16:27.144Z,37.37
2018-09-27T13:17:27.152Z,37.53
2018-09-27T13:18:27.105Z,36.64
2018-09-27T13:19:27.141Z,34.97
2018-09-27T13:20:27.151Z,35.61
2018-09-27T13:21:27.159Z,35.93
2018-09-27T13:22:27.089Z,36.07
2018-09-27T13:23:27.076Z,36.25
2018-09-27T13:24:27.070Z,36.49
2018-09-27T13:25:27.040Z,36.92
2018-09-27T13:26:27.138Z,37.02
2018-09-27T13:27:27.018Z,37.11
2018-09-27T13:28:27.099Z,37.25
2018-09-27T13:29:27.001Z,37.40
2018-09-27T13:30:26.984Z,37.35
2018-09-27T13:31:27.032Z,37.51
2018-09-27T13:32:26.969Z,37.84
2018-09-27T13:33:26.957Z,37.83
2018-09-27T13:34:26.949Z,38.04
2018-09-27T13:35:26.943Z,37.80
2018-09-27T13:36:26.983Z,37.10
2018-09-27T13:37:26.925Z,36.98
2018-09-27T13:38:26.932Z,36.43
2018-09-27T13:39:26.899Z,36.27
2018-09-27T13:40:26.897Z,35.76
2018-09-27T13:41:26.881Z,35.31
2018-09-27T13:42:26.873Z,35.10
2018-09-27T13:43:26.905Z,35.19
2018-09-27T13:44:26.863Z,35.12
2018-09-27T13:45:26.846Z,35.22
2018-09-27T13:46:26.894Z,35.39
2018-09-27T13:47:26.823Z,35.49
2018-09-27T13:48:26.843Z,35.61
2018-09-27T13:49:26.808Z,35.63
2018-09-27T13:50:26.797Z,35.56
2018-09-27T13:51:26.794Z,35.30
2018-09-27T13:52:26.774Z,35.31
2018-09-27T13:53:26.766Z,35.08
2018-09-27T13:54:26.774Z,34.95
2018-09-27T13:55:26.752Z,34.48
2018-09-27T13:56:26.733Z,34.36
2018-09-27T13:57:26.804Z,34.58
2018-09-27T13:58:26.718Z,34.99
2018-09-27T13:59:26.728Z,35.17
2018-09-27T14:00:26.697Z,35.14
2018-09-27T14:01:26.684Z,35.24
2018-09-27T14:02:26.674Z,34.99
2018-09-27T14:03:26.677Z,34.38
2018-09-27T14:04:26.683Z,34.27
2018-09-27T14:05:26.682Z,33.98
2018-09-27T14:06:26.641Z,33.62
2018-09-27T14:07:26.630Z,33.55
2018-09-27T14:08:26.629Z,33.65
2018-09-27T14:09:26.646Z,33.80
2018-09-27T14:10:26.609Z,34.03
2018-09-27T14:11:26.583Z,34.11
2018-09-27T14:12:26.579Z,34.33
2018-09-27T14:13:26.568Z,34.35
2018-09-27T14:14:26.574Z,34.30
2018-09-27T14:15:26.569Z,34.24
2018-09-27T14:16:26.534Z,34.30
2018-09-27T14:17:26.532Z,34.52
2018-09-27T14:18:26.517Z,34.71
2018-09-27T14:19:26.507Z,34.42
2018-09-27T14:20:26.536Z,34.38
2018-09-27T14:21:26.487Z,34.32
2018-09-27T14:22:26.478Z,34.29
2018-09-27T14:23:26.470Z,34.14
2018-09-27T14:24:26.461Z,33.92
2018-09-27T14:25:26.487Z,33.73
2018-09-27T14:26:26.449Z,33.87
2018-09-27T14:27:26.423Z,34.02
2018-09-27T14:28:26.416Z,34.25
2018-09-27T14:29:26.409Z,34.30
2018-09-27T14:30:26.389Z,34.40
2018-09-27T14:31:26.429Z,34.30
2018-09-27T14:32:26.371Z,34.16
2018-09-27T14:33:26.362Z,34.08
2018-09-27T14:34:26.406Z,33.84
2018-09-27T14:35:26.389Z,33.77
2018-09-27T14:36:26.357Z,33.73
2018-09-27T14:37:26.330Z,33.69
2018-09-27T14:38:26.330Z,33.65
2018-09-27T14:39:26.304Z,33.45
2018-09-27T14:40:26.295Z,33.32
2018-09-27T14:41:26.321Z,33.30
2018-09-27T14:42:26.285Z,33.34
2018-09-27T14:43:26.260Z,33.40
2018-09-27T14:44:26.257Z,33.50
2018-09-27T14:45:26.245Z,33.64
2018-09-27T14:46:26.265Z,33.73
2018-09-27T14:47:26.302Z,33.68
2018-09-27T14:48:26.218Z,33.69
2018-09-27T14:49:26.218Z,33.31
2018-09-27T14:50:26.198Z,32.85
2018-09-27T14:51:26.189Z,32.46
2018-09-27T14:52:26.229Z,32.16
2018-09-27T14:53:26.180Z,32.00
2018-09-27T14:54:26.148Z,32.12
2018-09-27T14:55:26.158Z,32.07
2018-09-27T14:56:26.135Z,32.08
2018-09-27T14:57:26.151Z,31.90
2018-09-27T14:58:26.159Z,31.70
2018-09-27T14:59:26.099Z,31.56
2018-09-27T15:00:26.106Z,31.64
2018-09-27T15:01:26.085Z,31.43
2018-09-27T15:02:26.174Z,31.47
2018-09-27T15:03:26.091Z,31.62
2018-09-27T15:04:26.101Z,31.46
2018-09-27T15:05:26.035Z,31.03
2018-09-27T15:06:26.052Z,31.03
2018-09-27T15:07:26.021Z,31.21
2018-09-27T15:08:26.036Z,31.46
2018-09-27T15:09:26.090Z,31.81
2018-09-27T15:10:26.112Z,31.94
2018-09-27T15:11:25.978Z,31.70
2018-09-27T15:12:26.013Z,31.29
2018-09-27T15:13:25.989Z,30.92
2018-09-27T15:14:25.998Z,30.92
2018-09-27T15:15:25.940Z,30.84
2018-09-27T15:16:26.024Z,30.73
2018-09-27T15:17:25.923Z,30.51
2018-09-27T15:18:25.911Z,30.35
2018-09-27T15:19:25.941Z,30.57
2018-09-27T15:20:25.886Z,30.91
2018-09-27T15:21:25.872Z,31.07
2018-09-27T15:22:25.919Z,31.37
2018-09-27T15:23:25.864Z,31.29
2018-09-27T15:24:25.888Z,31.05
2018-09-27T15:25:25.841Z,30.84
2018-09-27T15:26:25.854Z,30.78
2018-09-27T15:27:25.836Z,30.80
2018-09-27T15:28:25.819Z,30.83
2018-09-27T15:29:25.860Z,30.69
2018-09-27T15:30:25.866Z,30.63
2018-09-27T15:31:25.804Z,30.34
2018-09-27T15:32:25.786Z,30.25
2018-09-27T15:33:25.753Z,30.32
2018-09-27T15:34:25.818Z,30.39
2018-09-27T15:35:25.802Z,30.44
2018-09-27T15:36:25.745Z,30.46
2018-09-27T15:37:25.713Z,30.40
2018-09-27T15:38:25.719Z,30.10
2018-09-27T15:39:25.696Z,30.02
2018-09-27T15:40:25.707Z,29.78
2018-09-27T15:41:25.671Z,29.54
2018-09-27T15:42:25.667Z,29.16
2018-09-27T15:43:25.654Z,28.74
2018-09-27T15:44:25.641Z,28.30
2018-09-27T15:45:25.673Z,27.89
2018-09-27T15:46:25.619Z,27.63
2018-09-27T15:47:25.619Z,27.27
2018-09-27T15:48:25.599Z,27.03
2018-09-27T15:49:25.605Z,26.80
2018-09-27T15:50:25.576Z,26.63
2018-09-27T15:51:25.656Z,26.44
2018-09-27T15:52:25.563Z,26.26
2018-09-27T15:53:25.545Z,26.09
2018-09-27T15:54:25.534Z,25.84
2018-09-27T15:55:25.537Z,25.77
2018-09-27T15:56:25.556Z,25.62
2018-09-27T15:57:25.506Z,25.50
2018-09-27T15:58:25.531Z,25.43
2018-09-27T15:59:25.496Z,25.33
2018-09-27T16:00:25.482Z,25.23
2018-09-27T16:01:25.508Z,25.13
2018-09-27T16:02:25.451Z,25.13
2018-09-27T16:03:25.501Z,24.99
2018-09-27T16:04:25.455Z,24.95
2018-09-27T16:05:25.428Z,24.89
2018-09-27T16:06:25.476Z,24.88
2018-09-27T16:07:25.420Z,24.81
2018-09-27T16:08:25.393Z,24.80
2018-09-27T16:09:25.385Z,24.61
2018-09-27T16:10:25.372Z,24.48
2018-09-27T16:11:25.379Z,24.48
2018-09-27T16:12:25.375Z,24.36
2018-09-27T16:13:25.342Z,24.39
2018-09-27T16:14:25.328Z,24.38
2018-09-27T16:15:25.314Z,24.26
2018-09-27T16:16:25.307Z,24.26
2018-09-27T16:17:25.331Z,24.20
2018-09-27T16:18:25.294Z,24.10
2018-09-27T16:19:25.269Z,23.95
2018-09-27T16:20:25.257Z,23.88
2018-09-27T16:21:25.259Z,23.80
2018-09-27T16:22:25.273Z,23.76
2018-09-27T16:23:25.227Z,23.69
2018-09-27T16:24:25.229Z,23.56
2018-09-27T16:25:25.214Z,23.43
2018-09-27T16:26:25.223Z,23.32
2018-09-27T16:27:25.215Z,23.23
2018-09-27T16:28:25.189Z,23.15
2018-09-27T16:29:25.211Z,23.12
2018-09-27T16:30:25.149Z,23.00
2018-09-27T16:31:25.141Z,22.93
2018-09-27T16:32:25.128Z,22.85
2018-09-27T16:33:25.170Z,22.70
2018-09-27T16:34:25.113Z,22.62
2018-09-27T16:35:25.099Z,22.53
2018-09-27T16:36:25.087Z,22.48
2018-09-27T16:37:25.084Z,22.54
2018-09-27T16:38:25.097Z,22.29
2018-09-27T16:39:25.057Z,22.30
2018-09-27T16:40:25.086Z,22.13
2018-09-27T16:41:25.062Z,22.14
2018-09-27T16:42:25.053Z,22.02
2018-09-27T16:43:25.085Z,21.96
2018-09-27T16:44:25.004Z,21.92
2018-09-27T16:45:24.992Z,21.77
2018-09-27T16:46:24.992Z,21.69
2018-09-27T16:47:25.044Z,21.66
2018-09-27T16:48:24.965Z,21.66
2018-09-27T16:49:24.973Z,21.48
2018-09-27T16:50:24.948Z,21.36
2018-09-27T16:51:24.933Z,21.29
2018-09-27T16:52:24.927Z,21.14
2018-09-27T16:53:24.927Z,21.00
2018-09-27T16:54:24.925Z,20.99
2018-09-27T16:55:24.898Z,20.87
2018-09-27T16:56:24.874Z,20.92
2018-09-27T16:57:24.866Z,20.78
2018-09-27T16:58:24.852Z,20.70
2018-09-27T16:59:24.933Z,20.51
2018-09-27T17:00:24.832Z,20.59
2018-09-27T17:01:24.827Z,20.40
2018-09-27T17:02:24.828Z,20.21
2018-09-27T17:03:24.810Z,20.11
2018-09-27T17:04:24.796Z,20.02
2018-09-27T17:05:24.851Z,20.04
2018-09-27T17:06:24.770Z,20.00
2018-09-27T17:07:24.760Z,19.94
2018-09-27T17:08:24.753Z,19.85
2018-09-27T17:09:24.861Z,19.82
2018-09-27T17:10:24.769Z,19.67
2018-09-27T17:11:24.733Z,19.70
2018-09-27T17:12:24.708Z,19.64
2018-09-27T17:13:24.703Z,19.56
2018-09-27T17:14:24.700Z,19.40
2018-09-27T17:15:24.709Z,19.45
2018-09-27T17:16:24.701Z,19.44
2018-09-27T17:17:24.689Z,19.33
2018-09-27T17:18:24.651Z,19.30
2018-09-27T17:19:24.651Z,19.26
2018-09-27T17:20:24.653Z,19.11
2018-09-27T17:21:24.655Z,19.09
2018-09-27T17:22:24.616Z,19.09
2018-09-27T17:23:24.623Z,18.95
2018-09-27T17:24:24.626Z,18.90
2018-09-27T17:25:24.574Z,18.93
2018-09-27T17:26:24.601Z,18.81
2018-09-27T17:27:24.563Z,18.77
2018-09-27T17:28:24.544Z,18.75
2018-09-27T17:29:24.534Z,18.73
2018-09-27T17:30:24.522Z,18.65
2018-09-27T17:31:24.600Z,18.59
2018-09-27T17:32:24.511Z,18.68
2018-09-27T17:33:24.514Z,18.58
2018-09-27T17:34:24.471Z,18.53
2018-09-27T17:35:24.533Z,18.50
2018-09-27T17:36:24.451Z,18.37
2018-09-27T17:37:24.496Z,18.47
2018-09-27T17:38:24.432Z,18.45
2018-09-27T17:39:24.429Z,18.31
2018-09-27T17:40:24.488Z,18.28
2018-09-27T17:41:24.403Z,18.28
2018-09-27T17:42:24.418Z,18.19
2018-09-27T17:43:24.395Z,18.15
2018-09-27T17:44:24.365Z,18.05
2018-09-27T17:45:24.353Z,18.05
2018-09-27T17:46:24.368Z,17.82
2018-09-27T17:47:24.381Z,17.86
2018-09-27T17:48:24.333Z,17.79
2018-09-27T17:49:24.316Z,17.78
2018-09-27T17:50:24.304Z,17.72
2018-09-27T17:51:24.292Z,17.72
2018-09-27T17:52:24.280Z,17.67
2018-09-27T17:53:24.475Z,17.67
2018-09-27T17:54:24.264Z,17.64
2018-09-27T17:55:24.272Z,17.64
2018-09-27T17:56:24.233Z,17.60
2018-09-27T17:57:24.224Z,17.60
2018-09-27T17:58:24.281Z,17.60
2018-09-27T17:59:24.209Z,17.60
2018-09-27T18:00:24.205Z,17.52
2018-09-27T18:01:24.198Z,17.44
2018-09-27T18:02:24.174Z,17.44
2018-09-27T18:03:24.196Z,17.46
2018-09-27T18:04:24.150Z,17.33
2018-09-27T18:05:24.147Z,17.39
2018-09-27T18:06:24.125Z,17.36
2018-09-27T18:07:24.126Z,17.24
2018-09-27T18:08:24.109Z,17.20
2018-09-27T18:09:24.115Z,17.20
2018-09-27T18:10:24.082Z,17.16
2018-09-27T18:11:24.072Z,17.14
2018-09-27T18:12:24.068Z,16.97
2018-09-27T18:13:24.057Z,16.99
2018-09-27T18:14:24.079Z,16.97
2018-09-27T18:15:24.044Z,16.94
2018-09-27T18:16:24.022Z,16.87
2018-09-27T18:17:24.013Z,16.87
2018-09-27T18:18:24.001Z,16.89
2018-09-27T18:19:24.023Z,16.75
2018-09-27T18:20:23.979Z,16.75
2018-09-27T18:21:23.969Z,16.81
2018-09-27T18:22:23.975Z,16.66
2018-09-27T18:23:23.953Z,16.72
2018-09-27T18:24:23.975Z,16.65
2018-09-27T18:25:23.926Z,16.76
2018-09-27T18:26:23.934Z,16.74
2018-09-27T18:27:23.911Z,16.64
2018-09-27T18:28:23.892Z,16.65
2018-09-27T18:29:23.891Z,16.58
2018-09-27T18:30:23.890Z,16.65
2018-09-27T18:31:23.901Z,16.64
2018-09-27T18:32:23.852Z,16.66
2018-09-27T18:33:23.857Z,16.61
2018-09-27T18:34:23.866Z,16.61
2018-09-27T18:35:23.845Z,16.56
2018-09-27T18:36:23.809Z,16.51
2018-09-27T18:37:23.836Z,16.50
2018-09-27T18:38:23.884Z,16.43
2018-09-27T18:39:23.774Z,16.49
2018-09-27T18:40:23.794Z,16.46
2018-09-27T18:41:23.768Z,16.38
2018-09-27T18:42:23.755Z,16.35
2018-09-27T18:43:23.733Z,16.35
2018-09-27T18:44:23.729Z,16.28
2018-09-27T18:45:23.741Z,16.21
2018-09-27T18:46:23.708Z,16.17
2018-09-27T18:47:23.691Z,16.10
2018-09-27T18:48:23.736Z,16.09
2018-09-27T18:49:23.671Z,16.09
2018-09-27T18:50:23.697Z,16.12
2018-09-27T18:51:23.749Z,16.10
2018-09-27T18:52:23.646Z,16.10
2018-09-27T18:53:23.654Z,16.09
2018-09-27T18:54:23.612Z,16.04
2018-09-27T18:55:23.603Z,15.92
2018-09-27T18:56:23.618Z,16.00
2018-09-27T18:57:23.581Z,15.97
2018-09-27T18:58:23.593Z,15.97
2018-09-27T18:59:23.562Z,15.97
2018-09-27T19:00:23.570Z,15.97
2018-09-27T19:01:24.018Z,15.88
2018-09-27T19:02:23.540Z,15.73
2018-09-27T19:03:23.515Z,15.67
2018-09-27T19:04:23.505Z,15.61
2018-09-27T19:05:23.511Z,15.58
2018-09-27T19:06:23.503Z,15.64
2018-09-27T19:07:23.522Z,15.62
2018-09-27T19:08:23.519Z,15.52
2018-09-27T19:09:23.484Z,15.51
2018-09-27T19:10:23.440Z,15.54
2018-09-27T19:11:23.443Z,15.49
2018-09-27T19:12:23.463Z,15.65
2018-09-27T19:13:23.406Z,15.62
2018-09-27T19:14:23.397Z,15.59
2018-09-27T19:15:23.427Z,15.58
2018-09-27T19:16:23.420Z,15.46
2018-09-27T19:17:23.418Z,15.54
2018-09-27T19:18:23.357Z,15.47
2018-09-27T19:19:23.346Z,15.44
2018-09-27T19:20:23.357Z,15.57
2018-09-27T19:21:23.340Z,15.49
2018-09-27T19:22:23.325Z,15.52
2018-09-27T19:23:23.347Z,15.46
2018-09-27T19:24:23.306Z,15.36
2018-09-27T19:25:23.288Z,15.35
2018-09-27T19:26:23.267Z,15.40
2018-09-27T19:27:23.273Z,15.37
2018-09-27T19:28:23.278Z,15.33
2018-09-27T19:29:23.258Z,15.22
2018-09-27T19:30:23.239Z,15.27
2018-09-27T19:31:23.245Z,15.25
2018-09-27T19:32:23.208Z,15.17
2018-09-27T19:33:23.254Z,15.17
2018-09-27T19:34:23.194Z,15.22
2018-09-27T19:35:23.195Z,15.10
2018-09-27T19:36:23.172Z,15.07
2018-09-27T19:37:23.156Z,15.11
2018-09-27T19:38:23.170Z,15.06
2018-09-27T19:39:23.273Z,14.92
2018-09-27T19:40:23.134Z,14.86
2018-09-27T19:41:23.123Z,14.94
2018-09-27T19:42:23.110Z,14.86
2018-09-27T19:43:23.112Z,14.96
2018-09-27T19:44:23.119Z,14.89
2018-09-27T19:45:23.090Z,14.81
2018-09-27T19:46:23.063Z,14.91
2018-09-27T19:47:23.056Z,14.89
2018-09-27T19:48:23.039Z,14.94
2018-09-27T19:49:23.100Z,14.88
2018-09-27T19:50:23.045Z,14.82
2018-09-27T19:51:23.012Z,14.77
2018-09-27T19:52:23.079Z,14.81
2018-09-27T19:53:22.985Z,14.73
2018-09-27T19:54:22.979Z,14.79
2018-09-27T19:55:22.993Z,14.66
2018-09-27T19:56:22.950Z,14.68
2018-09-27T19:57:22.958Z,14.78
2018-09-27T19:58:23.358Z,14.66
2018-09-27T19:59:22.992Z,14.78
2018-09-27T20:00:22.948Z,14.72
2018-09-27T20:01:22.902Z,14.72
2018-09-27T20:02:22.887Z,14.79
2018-09-27T20:03:22.879Z,14.82
2018-09-27T20:04:22.879Z,14.78
2018-09-27T20:05:22.901Z,14.78
2018-09-27T20:06:22.849Z,14.77
2018-09-27T20:07:22.900Z,14.60
2018-09-27T20:08:22.825Z,14.54
2018-09-27T20:09:22.819Z,14.62
2018-09-27T20:10:22.864Z,14.47
2018-09-27T20:11:22.813Z,14.53
2018-09-27T20:12:22.799Z,14.47
2018-09-27T20:13:22.782Z,14.50
2018-09-27T20:14:22.760Z,14.47
2018-09-27T20:15:22.747Z,14.59
2018-09-27T20:16:22.928Z,14.54
2018-09-27T20:17:22.734Z,14.54
2018-09-27T20:18:22.727Z,14.44
2018-09-27T20:19:22.706Z,14.45
2018-09-27T20:20:22.704Z,14.50
2018-09-27T20:21:22.714Z,14.45
2018-09-27T20:22:22.686Z,14.48
2018-09-27T20:23:22.694Z,14.35
2018-09-27T20:24:22.656Z,14.40
2018-09-27T20:25:22.640Z,14.35
2018-09-27T20:26:22.698Z,14.29
2018-09-27T20:27:22.624Z,14.25
2018-09-27T20:28:22.686Z,14.18
2018-09-27T20:29:22.618Z,14.22
2018-09-27T20:30:22.583Z,14.23
2018-09-27T20:31:22.582Z,14.20
2018-09-27T20:32:22.639Z,14.18
2018-09-27T20:33:22.574Z,14.18
2018-09-27T20:34:22.556Z,14.07
2018-09-27T20:35:22.549Z,14.14
2018-09-27T20:36:22.516Z,14.10
2018-09-27T20:37:22.542Z,14.08
2018-09-27T20:38:22.513Z,14.10
2018-09-27T20:39:22.483Z,14.00
2018-09-27T20:40:22.478Z,14.07
2018-09-27T20:41:22.492Z,13.97
2018-09-27T20:42:22.497Z,14.08
2018-09-27T20:43:22.454Z,13.99
2018-09-27T20:44:22.441Z,14.05
2018-09-27T20:45:22.418Z,14.05
2018-09-27T20:46:22.444Z,13.89
2018-09-27T20:47:22.447Z,13.97
2018-09-27T20:48:22.436Z,13.86
2018-09-27T20:49:22.377Z,13.90
2018-09-27T20:50:22.408Z,13.97
2018-09-27T20:51:22.385Z,13.89
2018-09-27T20:52:22.369Z,13.87
2018-09-27T20:53:22.363Z,13.75
2018-09-27T20:54:22.332Z,13.79
2018-09-27T20:55:22.346Z,13.83
2018-09-27T20:56:22.302Z,13.77
2018-09-27T20:57:22.295Z,13.78
2018-09-27T20:58:22.306Z,13.75
2018-09-27T20:59:22.275Z,13.75
2018-09-27T21:00:22.267Z,13.70
2018-09-27T21:01:22.255Z,13.75
2018-09-27T21:02:22.237Z,13.74
2018-09-27T21:03:22.292Z,13.75
2018-09-27T21:04:22.217Z,13.70
2018-09-27T21:05:22.220Z,13.63
2018-09-27T21:06:22.202Z,13.57
2018-09-27T21:07:22.200Z,13.50
2018-09-27T21:08:22.182Z,13.56
2018-09-27T21:09:22.201Z,13.50
2018-09-27T21:10:22.157Z,13.46
2018-09-27T21:11:22.163Z,13.44
2018-09-27T21:12:22.144Z,13.50
2018-09-27T21:13:22.122Z,13.44
2018-09-27T21:14:22.141Z,13.44
2018-09-27T21:15:22.123Z,13.46
2018-09-27T21:16:22.092Z,13.49
2018-09-27T21:17:22.097Z,13.42